Terminal Aerodrome Forecast
Issued by NWS Corpus Christi, TX

Home | Current Version | Previous Version | Text Only | Print | Product List | Glossary On
Versions: 1 2 3 4 5 6 7 8 9 10 11 12 13 14 15 16 17 18 19
600
FTUS44 KCRP 240531
TAFVCT
TAF
KVCT 240531Z 2406/2506 08004KT 5SM BR SCT022
     FM240700 10005KT 3SM BR SCT015
      TEMPO 2409/2413 1SM BR SCT012
     FM241400 12009KT P6SM SCT022 BKN035
     FM241600 14010G15KT P6SM VCSH SCT025 BKN035
     FM242300 13009KT P6SM SCT030 BKN150=

USA.gov is the U.S. government's official web portal to all federal, state and local government web resources and services.